createdAt,value
2023-02-11T00:00:21.424Z,82.32
2023-02-11T00:01:17.538Z,82.30
2023-02-11T00:02:11.755Z,82.26
2023-02-11T00:03:07.091Z,82.26
2023-02-11T00:04:02.166Z,82.25
2023-02-11T00:04:58.203Z,82.33
2023-02-11T00:05:52.693Z,82.46
2023-02-11T00:06:49.012Z,82.52
2023-02-11T00:07:43.173Z,82.52
2023-02-11T00:08:38.763Z,82.49
2023-02-11T00:09:33.741Z,82.48
2023-02-11T00:10:28.985Z,82.56
2023-02-11T00:11:24.169Z,82.57
2023-02-11T00:12:19.813Z,82.58
2023-02-11T00:13:14.759Z,82.65
2023-02-11T00:14:10.174Z,82.70
2023-02-11T00:15:05.174Z,82.76
2023-02-11T00:16:00.380Z,82.78
2023-02-11T00:16:55.722Z,82.82
2023-02-11T00:19:15.946Z,83.69
2023-02-11T00:20:10.932Z,83.60
2023-02-11T00:21:06.304Z,83.57
2023-02-11T00:22:01.657Z,83.52
2023-02-11T00:22:56.778Z,83.43
2023-02-11T00:23:51.981Z,83.44
2023-02-11T00:24:47.202Z,83.45
2023-02-11T00:25:42.857Z,83.56
2023-02-11T00:26:37.902Z,83.52
2023-02-11T00:27:33.413Z,83.32
2023-02-11T00:28:28.339Z,83.05
2023-02-11T00:29:23.595Z,82.62
2023-02-11T00:30:18.764Z,82.31
2023-02-11T00:31:14.170Z,81.90
2023-02-11T00:32:09.243Z,81.55
2023-02-11T00:33:04.616Z,81.29
2023-02-11T00:34:00.423Z,81.16
2023-02-11T00:34:55.617Z,81.25
2023-02-11T00:35:50.589Z,81.36
2023-02-11T00:36:45.535Z,81.52
2023-02-11T00:37:40.750Z,81.83
2023-02-11T00:38:36.004Z,82.11
2023-02-11T00:39:31.588Z,82.33
2023-02-11T00:40:26.572Z,82.46
2023-02-11T00:41:21.789Z,82.53
2023-02-11T00:42:17.175Z,82.71
2023-02-11T00:43:12.229Z,82.88
2023-02-11T00:44:07.640Z,82.99
2023-02-11T00:45:02.848Z,83.07
2023-02-11T00:45:58.265Z,83.10
2023-02-11T00:46:53.334Z,83.07
2023-02-11T00:47:48.589Z,83.19
2023-02-11T00:48:43.826Z,83.19
2023-02-11T00:49:39.239Z,83.18
2023-02-11T00:50:34.353Z,83.21
2023-02-11T00:51:29.743Z,83.32
2023-02-11T00:52:25.384Z,83.38
2023-02-11T00:53:20.371Z,83.31
2023-02-11T00:54:15.399Z,83.15
2023-02-11T00:55:10.650Z,82.98
2023-02-11T00:56:05.856Z,82.90
2023-02-11T00:57:01.235Z,82.88
2023-02-11T00:57:56.465Z,82.88
2023-02-11T00:58:51.559Z,82.95
2023-02-11T00:59:46.788Z,83.00
2023-02-11T01:00:41.994Z,83.02
2023-02-11T01:01:37.342Z,83.03
2023-02-11T01:02:32.486Z,83.07
2023-02-11T01:03:27.895Z,83.15
2023-02-11T01:04:23.004Z,83.21
2023-02-11T01:06:43.366Z,83.97
2023-02-11T01:07:38.523Z,83.85
2023-02-11T01:08:33.749Z,83.87
2023-02-11T01:09:28.984Z,83.84
2023-02-11T01:10:24.475Z,83.79
2023-02-11T01:11:19.423Z,83.80
2023-02-11T01:12:14.799Z,83.83
2023-02-11T01:13:09.903Z,83.83
2023-02-11T01:14:05.230Z,83.80
2023-02-11T01:15:00.468Z,83.72
2023-02-11T01:15:56.611Z,83.63
2023-02-11T01:16:51.154Z,83.56
2023-02-11T01:17:46.253Z,83.49
2023-02-11T01:18:42.140Z,83.39
2023-02-11T01:19:36.858Z,83.34
2023-02-11T01:20:32.183Z,83.34
2023-02-11T01:21:27.498Z,83.34
2023-02-11T01:22:22.616Z,83.34
2023-02-11T01:23:17.808Z,83.33
2023-02-11T01:24:13.201Z,83.38
2023-02-11T01:25:08.549Z,83.41
2023-02-11T01:26:03.772Z,83.46
2023-02-11T01:26:59.323Z,83.44
2023-02-11T01:27:54.294Z,83.44
2023-02-11T01:28:49.603Z,83.43
2023-02-11T01:29:44.836Z,83.47
2023-02-11T01:30:40.084Z,83.51
2023-02-11T01:31:35.338Z,83.51
2023-02-11T01:32:30.524Z,83.53
2023-02-11T01:33:25.883Z,83.47
2023-02-11T01:34:21.216Z,83.40
2023-02-11T01:35:16.326Z,83.30
2023-02-11T01:36:11.528Z,83.30
2023-02-11T01:37:07.226Z,83.33
2023-02-11T01:38:02.310Z,83.35
2023-02-11T01:38:57.387Z,83.34
2023-02-11T01:39:52.687Z,83.45
2023-02-11T01:40:48.074Z,83.53
2023-02-11T01:41:43.122Z,83.59
2023-02-11T01:42:38.456Z,83.71
2023-02-11T01:43:33.764Z,83.81
2023-02-11T01:44:28.958Z,84.00
2023-02-11T01:45:24.193Z,84.03
2023-02-11T01:46:19.478Z,83.94
2023-02-11T01:47:15.620Z,83.80
2023-02-11T01:48:10.047Z,83.71
2023-02-11T01:49:05.316Z,83.63
2023-02-11T01:50:00.430Z,83.58
2023-02-11T01:50:55.796Z,83.62
2023-02-11T01:51:51.003Z,83.67
2023-02-11T01:52:46.184Z,83.54
2023-02-11T01:53:41.406Z,83.38
2023-02-11T01:54:36.611Z,83.20
2023-02-11T01:55:31.864Z,83.04
2023-02-11T01:56:27.076Z,82.98
2023-02-11T01:57:22.549Z,83.02
2023-02-11T01:58:17.496Z,83.21
2023-02-11T01:59:12.852Z,83.26
2023-02-11T02:00:08.082Z,83.24
2023-02-11T02:01:03.288Z,83.10
2023-02-11T02:01:58.610Z,82.96
2023-02-11T02:02:53.715Z,82.85
2023-02-11T02:03:48.972Z,82.85
2023-02-11T02:04:44.544Z,82.89
2023-02-11T02:05:39.529Z,82.92
2023-02-11T02:06:34.764Z,83.04
2023-02-11T02:07:29.927Z,83.07
2023-02-11T02:08:25.484Z,83.20
2023-02-11T02:09:19.739Z,83.35
2023-02-11T02:10:14.850Z,83.48
2023-02-11T02:11:09.934Z,83.66
2023-02-11T02:12:05.190Z,83.87
2023-02-11T02:13:00.206Z,84.04
2023-02-11T02:13:55.168Z,84.23
2023-02-11T02:14:50.130Z,84.39
2023-02-11T02:15:45.689Z,84.48
2023-02-11T02:16:40.699Z,84.45
2023-02-11T02:17:35.818Z,84.38
2023-02-11T02:18:31.119Z,84.26
2023-02-11T02:19:26.056Z,84.18
2023-02-11T02:20:21.205Z,84.17
2023-02-11T02:21:16.322Z,84.11
2023-02-11T02:22:11.163Z,84.10
2023-02-11T02:23:06.271Z,84.11
2023-02-11T02:24:01.331Z,84.20
2023-02-11T02:24:56.496Z,84.22
2023-02-11T02:25:51.672Z,84.17
2023-02-11T02:26:46.551Z,84.00
2023-02-11T02:27:41.480Z,83.86
2023-02-11T02:28:36.579Z,83.71
2023-02-11T02:29:31.563Z,83.56
2023-02-11T02:30:26.644Z,83.51
2023-02-11T02:31:21.713Z,83.55
2023-02-11T02:32:20.623Z,83.58
2023-02-11T02:33:22.451Z,83.61
2023-02-11T02:34:11.825Z,83.73
2023-02-11T02:35:05.869Z,83.83
2023-02-11T02:36:01.890Z,83.98
2023-02-11T02:36:57.106Z,83.98
2023-02-11T02:37:52.380Z,84.03
2023-02-11T02:38:47.564Z,84.11
2023-02-11T02:39:43.918Z,84.21
2023-02-11T02:40:38.981Z,84.13
2023-02-11T02:41:34.217Z,84.00
2023-02-11T02:42:29.465Z,83.91
2023-02-11T02:43:24.692Z,83.91
2023-02-11T02:44:19.893Z,83.85
2023-02-11T02:45:15.278Z,83.80
2023-02-11T02:46:10.525Z,83.88
2023-02-11T02:47:05.871Z,83.96
2023-02-11T02:48:00.968Z,84.05
2023-02-11T02:48:56.352Z,84.14
2023-02-11T02:49:51.428Z,84.24
2023-02-11T02:50:46.669Z,84.46
2023-02-11T02:51:41.906Z,84.41
2023-02-11T02:52:37.390Z,84.32
2023-02-11T02:53:32.428Z,84.21
2023-02-11T02:54:27.798Z,84.21
2023-02-11T02:55:23.020Z,84.24
2023-02-11T02:56:18.366Z,84.26
2023-02-11T02:57:13.345Z,84.27
2023-02-11T02:58:08.614Z,84.31
2023-02-11T02:59:04.100Z,84.34
2023-02-11T02:59:59.149Z,84.42
2023-02-11T03:00:54.511Z,84.58
2023-02-11T03:03:21.055Z,85.19
2023-02-11T03:04:15.998Z,85.16
2023-02-11T03:05:11.350Z,85.12
2023-02-11T03:06:06.565Z,85.18
2023-02-11T03:07:01.927Z,85.10
2023-02-11T03:07:57.172Z,85.01
2023-02-11T03:08:52.403Z,84.97
2023-02-11T03:09:47.603Z,84.99
2023-02-11T03:10:42.951Z,85.11
2023-02-11T03:11:38.379Z,85.18
2023-02-11T03:12:33.390Z,85.21
2023-02-11T03:13:28.756Z,85.22
2023-02-11T03:14:23.865Z,85.18
2023-02-11T03:15:19.097Z,85.11
2023-02-11T03:16:14.375Z,85.07
2023-02-11T03:17:09.566Z,84.96
2023-02-11T03:18:05.112Z,84.77
2023-02-11T03:19:00.088Z,84.54
2023-02-11T03:19:55.343Z,84.23
2023-02-11T03:20:50.547Z,84.00
2023-02-11T03:21:45.797Z,83.86
2023-02-11T03:22:41.019Z,83.77
2023-02-11T03:23:36.528Z,83.70
2023-02-11T03:24:31.519Z,83.69
2023-02-11T03:25:26.855Z,83.66
2023-02-11T03:26:21.946Z,83.67
2023-02-11T03:27:17.168Z,83.74
2023-02-11T03:28:12.473Z,83.85
2023-02-11T03:29:07.713Z,84.02
2023-02-11T03:30:02.820Z,84.16
2023-02-11T03:30:58.076Z,84.27
2023-02-11T03:31:53.324Z,84.36
2023-02-11T03:32:48.560Z,84.41
2023-02-11T03:33:43.892Z,84.40
2023-02-11T03:34:39.142Z,84.45
2023-02-11T03:35:34.210Z,84.51
2023-02-11T03:36:29.562Z,84.57
2023-02-11T03:37:24.819Z,84.60
2023-02-11T03:38:20.054Z,84.65
2023-02-11T03:39:15.636Z,84.62
2023-02-11T03:40:10.647Z,84.57
2023-02-11T03:41:05.857Z,84.47
2023-02-11T03:42:01.108Z,84.39
2023-02-11T03:42:56.307Z,84.36
2023-02-11T03:43:51.785Z,84.34
2023-02-11T03:44:47.036Z,84.33
2023-02-11T03:45:42.215Z,84.40
2023-02-11T03:46:37.455Z,84.45
2023-02-11T03:47:32.670Z,84.48
2023-02-11T03:48:27.922Z,84.48
2023-02-11T03:49:23.292Z,84.49
2023-02-11T03:50:18.353Z,84.52
2023-02-11T03:51:13.735Z,84.51
2023-02-11T03:52:08.974Z,84.53
2023-02-11T03:53:04.433Z,84.42
2023-02-11T03:53:59.630Z,84.43
2023-02-11T03:54:55.264Z,84.42
2023-02-11T03:55:50.231Z,84.42
2023-02-11T03:56:45.220Z,84.36
2023-02-11T03:57:40.407Z,84.30
2023-02-11T03:58:35.630Z,84.24
2023-02-11T03:59:30.837Z,84.19
2023-02-11T04:00:26.209Z,84.08
2023-02-11T04:01:21.681Z,83.95
2023-02-11T04:02:16.540Z,83.75
2023-02-11T04:03:11.813Z,83.59
2023-02-11T04:04:07.168Z,83.54
2023-02-11T04:05:02.617Z,83.52
2023-02-11T04:05:58.450Z,83.54
2023-02-11T04:06:53.539Z,83.56
2023-02-11T04:07:48.900Z,83.67
2023-02-11T04:08:44.220Z,83.74
2023-02-11T04:09:39.498Z,83.86
2023-02-11T04:10:34.551Z,83.95
2023-02-11T04:11:30.010Z,84.08
2023-02-11T04:12:25.107Z,84.24
2023-02-11T04:13:20.469Z,84.35
2023-02-11T04:14:15.677Z,84.20
2023-02-11T04:15:11.009Z,84.06
2023-02-11T04:16:06.354Z,83.95
2023-02-11T04:17:01.536Z,83.85
2023-02-11T04:17:56.769Z,83.78
2023-02-11T04:18:51.992Z,83.67
2023-02-11T04:19:47.212Z,83.58
2023-02-11T04:20:42.468Z,83.45
2023-02-11T04:21:38.081Z,83.25
2023-02-11T04:22:32.932Z,83.17
2023-02-11T04:23:28.129Z,83.15
2023-02-11T04:24:23.415Z,83.17
2023-02-11T04:25:18.605Z,83.18
2023-02-11T04:26:13.862Z,83.11
2023-02-11T04:27:09.101Z,83.06
2023-02-11T04:28:04.404Z,83.03
2023-02-11T04:28:59.746Z,83.11
2023-02-11T04:29:55.098Z,83.32
2023-02-11T04:30:50.172Z,83.58
2023-02-11T04:31:45.466Z,83.85
2023-02-11T04:32:40.888Z,83.97
2023-02-11T04:33:37.064Z,84.17
2023-02-11T04:34:31.335Z,84.33
2023-02-11T04:35:26.562Z,84.51
2023-02-11T04:36:21.786Z,84.64
2023-02-11T04:37:17.825Z,84.74
2023-02-11T04:38:14.061Z,84.80
2023-02-11T04:39:08.237Z,84.79
2023-02-11T04:40:03.432Z,84.73
2023-02-11T04:40:58.813Z,84.63
2023-02-11T04:41:54.132Z,84.46
2023-02-11T04:42:49.374Z,84.37
2023-02-11T04:43:44.699Z,84.26
2023-02-11T04:44:39.930Z,84.14
2023-02-11T04:45:35.017Z,84.04
2023-02-11T04:46:30.236Z,83.88
2023-02-11T04:47:25.164Z,83.77
2023-02-11T04:48:20.253Z,83.71
2023-02-11T04:49:15.326Z,83.64
2023-02-11T04:50:10.305Z,83.57
2023-02-11T04:51:05.265Z,83.53
2023-02-11T04:52:00.366Z,83.46
2023-02-11T04:53:00.884Z,83.36
2023-02-11T04:53:56.134Z,83.30
2023-02-11T04:54:51.607Z,83.24
2023-02-11T04:55:47.268Z,83.17
2023-02-11T04:56:42.607Z,83.16
2023-02-11T04:57:38.050Z,83.17
2023-02-11T04:58:34.222Z,83.24
2023-02-11T04:59:29.484Z,83.28
2023-02-11T05:00:25.369Z,83.33
2023-02-11T05:01:20.559Z,83.34
2023-02-11T05:02:15.816Z,83.43
2023-02-11T05:03:11.633Z,83.48
2023-02-11T05:04:06.894Z,83.50
2023-02-11T05:05:02.929Z,83.52
2023-02-11T05:05:57.894Z,83.52
2023-02-11T05:06:53.221Z,83.48
2023-02-11T05:07:48.920Z,83.43
2023-02-11T05:08:44.244Z,83.32
2023-02-11T05:09:39.580Z,83.25
2023-02-11T05:10:35.934Z,83.19
2023-02-11T05:11:31.031Z,83.05
2023-02-11T05:12:26.888Z,82.96
2023-02-11T05:13:22.130Z,82.82
2023-02-11T05:14:17.638Z,82.65
2023-02-11T05:15:13.527Z,82.50
2023-02-11T05:16:08.647Z,82.27
2023-02-11T05:17:04.437Z,82.04
2023-02-11T05:17:59.721Z,81.82
2023-02-11T05:18:55.269Z,81.73
2023-02-11T05:19:50.851Z,81.69
2023-02-11T05:20:46.109Z,81.65
2023-02-11T05:21:53.184Z,81.71
2023-02-11T05:22:38.684Z,81.85
2023-02-11T05:23:33.010Z,81.90
2023-02-11T05:24:28.938Z,81.87
2023-02-11T05:25:25.106Z,81.86
2023-02-11T05:26:19.421Z,81.92
2023-02-11T05:28:43.747Z,82.93
2023-02-11T05:29:37.771Z,82.99
2023-02-11T05:30:33.060Z,83.10
2023-02-11T05:31:28.387Z,83.24
2023-02-11T05:32:23.596Z,83.29
2023-02-11T05:33:18.806Z,83.36
2023-02-11T05:34:14.061Z,83.39
2023-02-11T05:35:09.284Z,83.44
2023-02-11T05:36:04.643Z,83.32
2023-02-11T05:36:59.788Z,83.17
2023-02-11T05:37:55.043Z,83.01
2023-02-11T05:38:50.490Z,82.95
2023-02-11T05:39:45.612Z,82.91
2023-02-11T05:40:40.817Z,82.82
2023-02-11T05:41:36.217Z,82.72
2023-02-11T05:42:31.368Z,82.75
2023-02-11T05:43:26.611Z,82.81
2023-02-11T05:44:21.827Z,82.90
2023-02-11T05:45:17.191Z,82.91
2023-02-11T05:46:12.399Z,82.83
2023-02-11T05:47:07.644Z,82.68
2023-02-11T05:48:02.945Z,82.57
2023-02-11T05:48:58.419Z,82.46
2023-02-11T05:49:53.358Z,82.34
2023-02-11T05:50:48.731Z,82.26
2023-02-11T05:51:44.014Z,82.26
2023-02-11T05:52:39.246Z,82.16
2023-02-11T05:53:34.484Z,81.86
2023-02-11T05:54:29.833Z,81.64
2023-02-11T05:55:25.020Z,81.54
2023-02-11T05:56:20.252Z,81.49
2023-02-11T05:57:15.614Z,81.60
2023-02-11T05:58:10.689Z,81.70
2023-02-11T05:59:06.297Z,81.79
2023-02-11T06:00:01.261Z,81.90
2023-02-11T06:00:56.473Z,82.00
2023-02-11T06:01:51.712Z,81.99
2023-02-11T06:02:46.951Z,81.90
2023-02-11T06:03:42.207Z,81.78
2023-02-11T06:04:37.468Z,81.71
2023-02-11T06:05:32.777Z,81.79
2023-02-11T06:06:28.052Z,81.89
2023-02-11T06:07:23.305Z,81.80
2023-02-11T06:08:18.525Z,81.73
2023-02-11T06:09:13.857Z,81.59
2023-02-11T06:10:09.113Z,81.45
2023-02-11T06:11:05.324Z,81.34
2023-02-11T06:11:59.615Z,81.34
2023-02-11T06:12:55.350Z,81.39
2023-02-11T06:13:50.151Z,81.33
2023-02-11T06:14:45.452Z,81.26
2023-02-11T06:15:40.743Z,81.31
2023-02-11T06:16:36.027Z,81.32
2023-02-11T06:17:31.311Z,81.21
2023-02-11T06:18:26.721Z,81.08
2023-02-11T06:19:22.034Z,81.07
2023-02-11T06:20:17.173Z,81.15
2023-02-11T06:21:12.444Z,81.19
2023-02-11T06:22:07.713Z,81.17
2023-02-11T06:23:03.142Z,81.18
2023-02-11T06:23:58.510Z,81.33
2023-02-11T06:25:01.408Z,81.57
2023-02-11T06:25:50.440Z,81.69
2023-02-11T06:26:44.408Z,81.83
2023-02-11T06:27:39.652Z,81.99
2023-02-11T06:28:34.970Z,82.14
2023-02-11T06:29:30.282Z,82.18
2023-02-11T06:30:25.555Z,82.18
2023-02-11T06:31:21.040Z,82.04
2023-02-11T06:32:36.984Z,81.91
2023-02-11T06:33:12.960Z,81.86
2023-02-11T06:34:07.330Z,81.65
2023-02-11T06:35:02.669Z,81.47
2023-02-11T06:35:57.984Z,81.34
2023-02-11T06:36:53.286Z,81.17
2023-02-11T06:37:48.580Z,81.09
2023-02-11T06:38:44.046Z,81.06
2023-02-11T06:39:39.277Z,81.05
2023-02-11T06:40:34.624Z,81.01
2023-02-11T06:41:30.086Z,80.99
2023-02-11T06:42:25.291Z,80.84
2023-02-11T06:43:20.702Z,80.77
2023-02-11T06:44:16.071Z,80.77
2023-02-11T06:45:11.572Z,80.70
2023-02-11T06:46:06.867Z,80.62
2023-02-11T06:47:02.412Z,80.63
2023-02-11T06:47:57.700Z,80.59
2023-02-11T06:48:53.362Z,80.54
2023-02-11T06:49:48.526Z,80.40
2023-02-11T06:50:43.950Z,80.22
2023-02-11T06:51:39.337Z,80.25
2023-02-11T06:52:38.937Z,80.28
2023-02-11T06:53:34.530Z,80.43
2023-02-11T06:54:29.787Z,80.56
2023-02-11T06:55:25.347Z,80.75
2023-02-11T06:56:21.081Z,80.84
2023-02-11T06:57:16.046Z,80.91
2023-02-11T06:58:11.453Z,81.05
2023-02-11T06:59:06.849Z,81.18
2023-02-11T07:00:02.603Z,81.34
2023-02-11T07:00:57.734Z,81.58
2023-02-11T07:01:53.095Z,81.68
2023-02-11T07:02:48.423Z,81.60
2023-02-11T07:03:43.809Z,81.51
2023-02-11T07:04:38.804Z,81.39
2023-02-11T07:05:33.810Z,81.29
2023-02-11T07:06:28.787Z,81.27
2023-02-11T07:07:24.147Z,81.17
2023-02-11T07:08:19.001Z,81.19
2023-02-11T07:09:14.255Z,81.37
2023-02-11T07:10:09.299Z,81.53
2023-02-11T07:11:04.380Z,81.54
2023-02-11T07:12:00.147Z,81.46
2023-02-11T07:12:56.474Z,81.34
2023-02-11T07:13:50.023Z,81.15
2023-02-11T07:14:44.681Z,80.83
2023-02-11T07:15:39.961Z,80.60
2023-02-11T07:16:35.364Z,80.54
2023-02-11T07:17:30.833Z,80.46
2023-02-11T07:18:26.270Z,80.40
2023-02-11T07:19:21.278Z,80.40
2023-02-11T07:20:16.357Z,80.37
2023-02-11T07:21:11.388Z,80.54
2023-02-11T07:22:06.564Z,80.70
2023-02-11T07:23:01.616Z,80.81
2023-02-11T07:23:56.662Z,81.01
2023-02-11T07:24:51.849Z,81.21
2023-02-11T07:25:46.771Z,81.41
2023-02-11T07:26:41.787Z,81.51
2023-02-11T07:27:36.883Z,81.49
2023-02-11T07:28:32.012Z,81.45
2023-02-11T07:29:27.104Z,81.44
2023-02-11T07:30:22.139Z,81.36
2023-02-11T07:31:17.468Z,81.35
2023-02-11T07:32:14.459Z,81.27
2023-02-11T07:33:09.833Z,81.22
2023-02-11T07:34:06.352Z,81.16
2023-02-11T07:35:01.266Z,81.08
2023-02-11T07:35:56.512Z,80.91
2023-02-11T07:36:52.092Z,80.68
2023-02-11T07:37:48.023Z,80.54
2023-02-11T07:38:43.541Z,80.39
2023-02-11T07:39:39.444Z,80.19
2023-02-11T07:40:34.540Z,80.01
2023-02-11T07:41:30.029Z,79.84
2023-02-11T07:42:25.323Z,79.75
2023-02-11T07:43:20.159Z,79.51
2023-02-11T07:44:15.552Z,79.47
2023-02-11T07:45:10.498Z,79.41
2023-02-11T07:46:05.622Z,78.64
2023-02-11T07:47:00.690Z,77.40
2023-02-11T07:47:55.771Z,76.08
2023-02-11T07:48:50.831Z,75.11
2023-02-11T07:49:45.984Z,74.79
2023-02-11T07:50:40.905Z,74.40
2023-02-11T07:51:36.082Z,74.37
2023-02-11T07:52:31.105Z,74.24
2023-02-11T07:53:25.982Z,74.00
2023-02-11T07:54:20.950Z,73.32
2023-02-11T07:55:18.315Z,72.79
2023-02-11T07:56:13.608Z,72.46
2023-02-11T07:57:09.069Z,71.65
2023-02-11T07:58:04.521Z,70.79
2023-02-11T07:58:59.960Z,70.00
2023-02-11T07:59:55.468Z,69.86
2023-02-11T08:00:51.034Z,70.36
2023-02-11T08:01:46.389Z,70.92
2023-02-11T08:02:41.976Z,70.64
2023-02-11T08:03:37.286Z,71.09
2023-02-11T08:04:32.863Z,71.31
2023-02-11T08:05:28.149Z,71.07
2023-02-11T08:06:23.804Z,71.45
2023-02-11T08:07:19.440Z,71.73
2023-02-11T08:08:14.735Z,71.52
2023-02-11T08:09:09.748Z,71.47
2023-02-11T08:10:04.887Z,71.59
2023-02-11T08:10:59.849Z,71.99
2023-02-11T08:11:54.914Z,72.44
2023-02-11T08:12:49.896Z,72.75
2023-02-11T08:13:44.969Z,73.01
2023-02-11T08:14:40.147Z,73.21
2023-02-11T08:15:35.824Z,72.75
2023-02-11T08:16:30.279Z,72.13
2023-02-11T08:17:25.340Z,71.31
2023-02-11T08:18:22.016Z,70.39
2023-02-11T08:19:17.366Z,70.24
2023-02-11T08:20:12.894Z,69.66
2023-02-11T08:21:08.328Z,68.87
2023-02-11T08:22:03.749Z,68.44
2023-02-11T08:22:59.202Z,67.69
2023-02-11T08:23:54.529Z,67.79
2023-02-11T08:24:52.318Z,67.11
2023-02-11T08:25:45.552Z,66.85
2023-02-11T08:26:40.917Z,67.61
2023-02-11T08:27:36.376Z,68.35
2023-02-11T08:28:31.943Z,68.85
2023-02-11T08:29:27.445Z,69.57
2023-02-11T08:30:24.593Z,70.00
2023-02-11T08:31:18.531Z,70.07
2023-02-11T08:32:13.456Z,70.30
2023-02-11T08:33:08.387Z,70.38
2023-02-11T08:34:03.500Z,70.46
2023-02-11T08:34:58.521Z,70.71
2023-02-11T08:35:53.628Z,71.06
2023-02-11T08:36:48.682Z,71.25
2023-02-11T08:37:43.714Z,71.40
2023-02-11T08:38:39.030Z,71.77
2023-02-11T08:39:33.841Z,72.00
2023-02-11T08:40:28.978Z,72.13
2023-02-11T08:41:25.657Z,72.21
2023-02-11T08:42:20.726Z,72.19
2023-02-11T08:43:15.781Z,72.24
2023-02-11T08:44:10.737Z,72.32
2023-02-11T08:45:06.735Z,72.10
2023-02-11T08:46:02.659Z,71.37
2023-02-11T08:46:57.667Z,70.25
2023-02-11T08:47:53.138Z,69.39
2023-02-11T08:48:48.621Z,67.93
2023-02-11T08:49:44.651Z,65.87
2023-02-11T08:50:39.664Z,64.86
2023-02-11T08:51:35.424Z,63.41
2023-02-11T08:52:30.630Z,62.69
2023-02-11T08:53:26.062Z,63.10
2023-02-11T08:54:21.546Z,63.37
2023-02-11T08:55:16.988Z,64.20
2023-02-11T08:56:13.572Z,64.71
2023-02-11T08:57:08.061Z,64.46
2023-02-11T08:58:03.048Z,64.14
2023-02-11T08:58:57.997Z,64.82
2023-02-11T08:59:53.295Z,64.38
2023-02-11T09:00:48.666Z,64.63
2023-02-11T09:01:43.693Z,65.02
2023-02-11T09:02:38.610Z,65.42
2023-02-11T09:03:33.657Z,65.90
2023-02-11T09:04:31.164Z,66.33
2023-02-11T09:05:26.395Z,66.44
2023-02-11T09:06:21.336Z,65.99
2023-02-11T09:07:16.883Z,66.22
2023-02-11T09:08:11.550Z,66.19
2023-02-11T09:09:06.699Z,66.88
2023-02-11T09:10:01.622Z,67.11
2023-02-11T09:10:56.725Z,67.30
2023-02-11T09:11:52.418Z,67.51
2023-02-11T09:12:47.642Z,67.45
2023-02-11T09:13:43.179Z,67.59
2023-02-11T09:14:38.911Z,67.87
2023-02-11T09:15:34.065Z,68.11
2023-02-11T09:16:30.249Z,68.34
2023-02-11T09:17:25.496Z,68.58
2023-02-11T09:18:20.973Z,68.75
2023-02-11T09:19:16.412Z,68.56
2023-02-11T09:20:11.939Z,68.45
2023-02-11T09:21:06.992Z,68.31
2023-02-11T09:22:02.411Z,68.74
2023-02-11T09:22:57.458Z,67.76
2023-02-11T09:23:52.087Z,68.00
2023-02-11T09:24:47.249Z,67.45
2023-02-11T09:25:42.300Z,67.17
2023-02-11T09:26:37.330Z,67.32
2023-02-11T09:27:35.021Z,68.28
2023-02-11T09:28:30.079Z,66.97
2023-02-11T09:29:25.090Z,65.34
2023-02-11T09:30:20.090Z,63.45
2023-02-11T09:31:15.312Z,62.28
2023-02-11T09:32:10.330Z,60.88
2023-02-11T09:33:05.386Z,59.94
2023-02-11T09:34:00.284Z,59.41
2023-02-11T09:34:55.748Z,59.74
2023-02-11T09:35:51.391Z,61.20
2023-02-11T09:36:47.173Z,63.09
2023-02-11T09:37:42.205Z,64.41
2023-02-11T09:38:37.662Z,64.83
2023-02-11T09:39:33.224Z,64.18
2023-02-11T09:40:28.718Z,64.19
2023-02-11T09:41:24.154Z,64.01
2023-02-11T09:42:19.704Z,63.95
2023-02-11T09:43:15.196Z,63.44
2023-02-11T09:44:10.652Z,62.47
2023-02-11T09:45:06.085Z,61.93
2023-02-11T09:46:01.593Z,61.17
2023-02-11T09:46:57.165Z,61.30
2023-02-11T09:47:52.675Z,60.62
2023-02-11T09:48:48.100Z,60.10
2023-02-11T09:49:43.313Z,60.82
2023-02-11T09:50:42.673Z,61.50
2023-02-11T09:51:37.954Z,60.96
2023-02-11T09:52:33.438Z,60.63
2023-02-11T09:53:29.082Z,60.60
2023-02-11T09:54:24.425Z,59.87
2023-02-11T09:55:19.924Z,60.13
2023-02-11T09:56:15.893Z,59.79
2023-02-11T09:57:26.512Z,59.14
2023-02-11T09:58:08.185Z,59.46
2023-02-11T09:59:02.474Z,58.85
2023-02-11T09:59:58.163Z,58.28
2023-02-11T10:00:53.608Z,57.84
2023-02-11T10:01:49.427Z,57.52
2023-02-11T10:02:44.469Z,56.56
2023-02-11T10:03:40.002Z,57.37
2023-02-11T10:04:35.109Z,58.73
2023-02-11T10:05:30.073Z,59.70
2023-02-11T10:06:25.159Z,60.10
2023-02-11T10:07:20.274Z,60.64
2023-02-11T10:08:16.988Z,61.52
2023-02-11T10:09:10.455Z,62.77
2023-02-11T10:10:05.511Z,63.66
2023-02-11T10:11:00.564Z,64.24
2023-02-11T10:11:55.645Z,64.96
2023-02-11T10:12:50.763Z,65.38
2023-02-11T10:13:46.714Z,65.81
2023-02-11T10:14:41.662Z,66.11
2023-02-11T10:15:36.750Z,66.64
2023-02-11T10:16:32.610Z,66.98
2023-02-11T10:17:27.571Z,67.65
2023-02-11T10:18:23.096Z,67.98
2023-02-11T10:19:18.709Z,68.22
2023-02-11T10:20:16.550Z,67.90
2023-02-11T10:21:09.577Z,67.92
2023-02-11T10:22:04.817Z,67.62
2023-02-11T10:22:59.923Z,67.27
2023-02-11T10:23:54.919Z,67.19
2023-02-11T10:24:50.178Z,67.06
2023-02-11T10:25:45.546Z,67.09
2023-02-11T10:26:40.153Z,67.31
2023-02-11T10:27:35.268Z,68.06
2023-02-11T10:28:30.361Z,68.51
2023-02-11T10:29:25.387Z,68.29
2023-02-11T10:30:20.648Z,68.42
2023-02-11T10:31:15.614Z,68.20
2023-02-11T10:32:11.351Z,67.94
2023-02-11T10:33:05.721Z,67.81
2023-02-11T10:34:00.670Z,67.60
2023-02-11T10:34:55.892Z,67.92
2023-02-11T10:35:51.392Z,67.33
2023-02-11T10:36:50.647Z,67.36
2023-02-11T10:37:46.232Z,67.70
2023-02-11T10:38:41.660Z,68.09
2023-02-11T10:39:36.956Z,68.41
2023-02-11T10:40:32.393Z,68.57
2023-02-11T10:41:27.964Z,68.82
2023-02-11T10:42:23.312Z,69.05
2023-02-11T10:43:19.005Z,69.32
2023-02-11T10:44:14.197Z,69.65
2023-02-11T10:45:09.636Z,69.87
2023-02-11T10:46:05.318Z,70.30
2023-02-11T10:47:00.526Z,68.94
2023-02-11T10:47:56.140Z,67.30
2023-02-11T10:48:51.641Z,65.77
2023-02-11T10:49:47.189Z,63.74
2023-02-11T10:50:42.266Z,62.38
2023-02-11T10:51:37.312Z,61.99
2023-02-11T10:52:32.294Z,61.10
2023-02-11T10:53:27.438Z,59.81
2023-02-11T10:54:22.443Z,58.82
2023-02-11T10:55:17.471Z,58.62
2023-02-11T10:56:12.557Z,57.69
2023-02-11T10:57:07.687Z,56.71
2023-02-11T10:58:02.784Z,56.19
2023-02-11T10:58:57.880Z,55.36
2023-02-11T10:59:54.102Z,54.42
2023-02-11T11:00:49.922Z,54.38
2023-02-11T11:01:44.977Z,54.30
2023-02-11T11:02:40.421Z,54.46
2023-02-11T11:05:00.850Z,55.13
2023-02-11T11:05:58.197Z,55.59
2023-02-11T11:06:51.469Z,56.76
2023-02-11T11:07:46.951Z,58.08
2023-02-11T11:08:42.500Z,58.21
2023-02-11T11:09:37.896Z,57.30
2023-02-11T11:10:33.381Z,56.47
2023-02-11T11:11:28.727Z,55.33
2023-02-11T11:12:24.147Z,54.15
2023-02-11T11:13:19.569Z,52.87
2023-02-11T11:14:15.017Z,52.17
2023-02-11T11:15:10.466Z,51.59
2023-02-11T11:16:06.119Z,51.86
2023-02-11T11:17:01.271Z,53.08
2023-02-11T11:18:11.350Z,52.65
2023-02-11T11:18:53.137Z,51.50
2023-02-11T11:19:47.468Z,50.56
2023-02-11T11:20:43.042Z,50.08
2023-02-11T11:21:38.573Z,49.74
2023-02-11T11:22:33.975Z,49.07
2023-02-11T11:23:29.526Z,48.43
2023-02-11T11:24:26.951Z,48.07
2023-02-11T11:25:20.556Z,49.44
2023-02-11T11:26:16.119Z,50.97
2023-02-11T11:27:11.756Z,52.34
2023-02-11T11:28:07.377Z,53.24
2023-02-11T11:29:02.687Z,53.89
2023-02-11T11:29:58.304Z,55.22
2023-02-11T11:30:54.189Z,55.91
2023-02-11T11:31:49.335Z,55.81
2023-02-11T11:32:44.674Z,55.02
2023-02-11T11:33:40.120Z,55.27
2023-02-11T11:34:35.609Z,54.39
2023-02-11T11:35:31.255Z,52.76
2023-02-11T11:36:26.736Z,51.61
2023-02-11T11:37:22.344Z,51.62
2023-02-11T11:38:17.715Z,51.67
2023-02-11T11:39:13.689Z,51.17
2023-02-11T11:40:08.656Z,51.56
2023-02-11T11:41:04.161Z,51.90
2023-02-11T11:41:59.898Z,52.56
2023-02-11T11:42:55.283Z,52.72
2023-02-11T11:43:50.670Z,52.67
2023-02-11T11:44:46.420Z,51.96
2023-02-11T11:45:41.842Z,52.83
2023-02-11T11:46:37.319Z,53.28
2023-02-11T11:47:32.814Z,53.16
2023-02-11T11:48:28.083Z,52.76
2023-02-11T11:49:23.603Z,53.70
2023-02-11T11:50:21.094Z,53.97
2023-02-11T11:51:14.738Z,53.72
2023-02-11T11:52:10.313Z,53.39
2023-02-11T11:53:05.815Z,52.36
2023-02-11T11:54:01.214Z,52.23
2023-02-11T11:54:56.795Z,52.79
2023-02-11T11:55:52.314Z,52.42
2023-02-11T11:56:47.838Z,53.45
2023-02-11T11:57:43.427Z,53.82
2023-02-11T11:58:38.757Z,54.01
2023-02-11T11:59:34.413Z,53.88